sensor_id;sensor_type;location;lat;lon;timestamp;pressure;altitude;pressure_sealevel;temperature;humidity
13709;BME280;54933;51.908;7.730;2023-04-08T00:01:29;101539.09;;;21.01;60.34
13709;BME280;54933;51.908;7.730;2023-04-08T00:03:55;101532.59;;;20.95;60.21
13709;BME280;54933;51.908;7.730;2023-04-08T00:06:20;101534.28;;;20.96;60.09
13709;BME280;54933;51.908;7.730;2023-04-08T00:08:45;101526.16;;;20.96;60.62
13709;BME280;54933;51.908;7.730;2023-04-08T00:11:11;101525.53;;;20.94;60.17
13709;BME280;54933;51.908;7.730;2023-04-08T00:13:36;101535.97;;;20.97;60.12
13709;BME280;54933;51.908;7.730;2023-04-08T00:16:01;101533.06;;;20.99;60.12
13709;BME280;54933;51.908;7.730;2023-04-08T00:18:27;101521.78;;;20.95;60.25
13709;BME280;54933;51.908;7.730;2023-04-08T00:20:53;101530.56;;;20.97;60.08
13709;BME280;54933;51.908;7.730;2023-04-08T00:23:18;101520.13;;;20.94;60.16
13709;BME280;54933;51.908;7.730;2023-04-08T00:25:45;101526.81;;;20.98;60.02
13709;BME280;54933;51.908;7.730;2023-04-08T00:28:11;101523.47;;;20.96;60.13
13709;BME280;54933;51.908;7.730;2023-04-08T00:30:36;101537.97;;;20.95;59.91
13709;BME280;54933;51.908;7.730;2023-04-08T00:33:02;101528.94;;;21.03;60.14
13709;BME280;54933;51.908;7.730;2023-04-08T00:35:28;101529.13;;;21.01;59.86
13709;BME280;54933;51.908;7.730;2023-04-08T00:37:53;101533.50;;;21.02;59.93
13709;BME280;54933;51.908;7.730;2023-04-08T00:40:18;101534.75;;;21.06;59.76
13709;BME280;54933;51.908;7.730;2023-04-08T00:42:44;101543.47;;;21.02;59.91
13709;BME280;54933;51.908;7.730;2023-04-08T00:45:10;101536.00;;;21.04;59.85
13709;BME280;54933;51.908;7.730;2023-04-08T00:47:36;101538.50;;;21.05;59.79
13709;BME280;54933;51.908;7.730;2023-04-08T00:50:02;101535.59;;;21.07;59.85
13709;BME280;54933;51.908;7.730;2023-04-08T00:52:28;101544.56;;;21.07;59.90
13709;BME280;54933;51.908;7.730;2023-04-08T00:54:54;101548.09;;;21.08;59.73
13709;BME280;54933;51.908;7.730;2023-04-08T00:57:20;101538.69;;;21.04;59.71
13709;BME280;54933;51.908;7.730;2023-04-08T00:59:45;101553.66;;;21.06;59.99
13709;BME280;54933;51.908;7.730;2023-04-08T01:02:35;101548.28;;;21.06;59.90
13709;BME280;54933;51.908;7.730;2023-04-08T01:05:13;101549.31;;;21.05;59.52
13709;BME280;54933;51.908;7.730;2023-04-08T01:07:49;101555.75;;;21.04;59.50
13709;BME280;54933;51.908;7.730;2023-04-08T01:10:32;101555.75;;;21.04;59.70
13709;BME280;54933;51.908;7.730;2023-04-08T01:13:03;101560.13;;;21.05;59.62
13709;BME280;54933;51.908;7.730;2023-04-08T01:15:31;101555.56;;;21.06;59.72
13709;BME280;54933;51.908;7.730;2023-04-08T01:17:58;101558.25;;;21.06;59.76
13709;BME280;54933;51.908;7.730;2023-04-08T01:20:25;101551.16;;;21.05;59.64
13709;BME280;54933;51.908;7.730;2023-04-08T01:25:30;101554.91;;;21.04;59.62
13709;BME280;54933;51.908;7.730;2023-04-08T01:27:57;101549.72;;;21.02;60.09
13709;BME280;54933;51.908;7.730;2023-04-08T01:30:24;101553.66;;;21.06;59.72
13709;BME280;54933;51.908;7.730;2023-04-08T01:32:53;101554.31;;;21.08;59.56
13709;BME280;54933;51.908;7.730;2023-04-08T01:35:19;101560.56;;;21.09;59.71
13709;BME280;54933;51.908;7.730;2023-04-08T01:37:47;101558.91;;;21.08;59.80
13709;BME280;54933;51.908;7.730;2023-04-08T01:40:14;101554.31;;;21.08;59.83
13709;BME280;54933;51.908;7.730;2023-04-08T01:42:41;101558.50;;;21.11;59.45
13709;BME280;54933;51.908;7.730;2023-04-08T01:45:08;101561.00;;;21.12;59.60
13709;BME280;54933;51.908;7.730;2023-04-08T01:47:34;101560.81;;;21.14;59.38
13709;BME280;54933;51.908;7.730;2023-04-08T01:50:01;101570.78;;;21.13;59.57
13709;BME280;54933;51.908;7.730;2023-04-08T01:52:27;101571.81;;;21.12;59.65
13709;BME280;54933;51.908;7.730;2023-04-08T01:54:54;101567.06;;;21.14;59.46
13709;BME280;54933;51.908;7.730;2023-04-08T01:57:23;101565.81;;;21.17;59.42
13709;BME280;54933;51.908;7.730;2023-04-08T01:59:51;101568.31;;;21.18;59.77
13709;BME280;54933;51.908;7.730;2023-04-08T02:02:19;101567.88;;;21.15;59.39
13709;BME280;54933;51.908;7.730;2023-04-08T02:04:45;101573.28;;;21.15;59.34
13709;BME280;54933;51.908;7.730;2023-04-08T02:07:11;101575.16;;;21.14;59.67
13709;BME280;54933;51.908;7.730;2023-04-08T02:09:36;101572.69;;;21.19;59.49
13709;BME280;54933;51.908;7.730;2023-04-08T02:12:01;101566.25;;;21.20;59.34
13709;BME280;54933;51.908;7.730;2023-04-08T02:14:27;101569.19;;;21.25;59.25
13709;BME280;54933;51.908;7.730;2023-04-08T02:17:18;101568.16;;;21.26;59.41
13709;BME280;54933;51.908;7.730;2023-04-08T02:19:46;101569.84;;;21.27;59.25
13709;BME280;54933;51.908;7.730;2023-04-08T02:22:39;101567.75;;;21.29;59.10
13709;BME280;54933;51.908;7.730;2023-04-08T02:25:03;101576.06;;;21.28;59.14
13709;BME280;54933;51.908;7.730;2023-04-08T02:27:33;101572.53;;;21.27;59.00
13709;BME280;54933;51.908;7.730;2023-04-08T02:30:02;101572.09;;;21.24;58.94
13709;BME280;54933;51.908;7.730;2023-04-08T02:32:30;101575.25;;;21.27;58.99
13709;BME280;54933;51.908;7.730;2023-04-08T02:34:58;101576.25;;;21.26;59.11
13709;BME280;54933;51.908;7.730;2023-04-08T02:37:27;101578.97;;;21.26;59.13
13709;BME280;54933;51.908;7.730;2023-04-08T02:39:52;101586.44;;;21.24;58.91
13709;BME280;54933;51.908;7.730;2023-04-08T02:42:17;101586.66;;;21.29;58.88
13709;BME280;54933;51.908;7.730;2023-04-08T02:44:42;101576.06;;;21.28;58.99
13709;BME280;54933;51.908;7.730;2023-04-08T02:47:08;101587.72;;;21.28;58.86
13709;BME280;54933;51.908;7.730;2023-04-08T02:49:33;101591.47;;;21.27;59.02
13709;BME280;54933;51.908;7.730;2023-04-08T02:51:58;101590.41;;;21.28;58.91
13709;BME280;54933;51.908;7.730;2023-04-08T02:54:23;101590.22;;;21.30;59.15
13709;BME280;54933;51.908;7.730;2023-04-08T02:56:49;101582.94;;;21.30;59.01
13709;BME280;54933;51.908;7.730;2023-04-08T02:59:14;101593.97;;;21.29;58.89
13709;BME280;54933;51.908;7.730;2023-04-08T03:01:39;101597.47;;;21.29;59.00
13709;BME280;54933;51.908;7.730;2023-04-08T03:04:05;101602.91;;;21.29;58.72
13709;BME280;54933;51.908;7.730;2023-04-08T03:06:30;101599.19;;;21.30;58.91
13709;BME280;54933;51.908;7.730;2023-04-08T03:08:56;101595.81;;;21.28;58.79
13709;BME280;54933;51.908;7.730;2023-04-08T03:11:21;101596.88;;;21.27;58.78
13709;BME280;54933;51.908;7.730;2023-04-08T03:13:46;101603.09;;;21.28;58.98
13709;BME280;54933;51.908;7.730;2023-04-08T03:16:12;101601.88;;;21.30;59.04
13709;BME280;54933;51.908;7.730;2023-04-08T03:18:37;101604.19;;;21.33;58.90
13709;BME280;54933;51.908;7.730;2023-04-08T03:21:02;101598.13;;;21.31;58.45
13709;BME280;54933;51.908;7.730;2023-04-08T03:23:27;101598.13;;;21.31;58.92
13709;BME280;54933;51.908;7.730;2023-04-08T03:25:53;101601.88;;;21.30;58.89
13709;BME280;54933;51.908;7.730;2023-04-08T03:28:18;101591.31;;;21.35;58.72
13709;BME280;54933;51.908;7.730;2023-04-08T03:30:43;101602.13;;;21.35;58.90
13709;BME280;54933;51.908;7.730;2023-04-08T03:33:08;101595.03;;;21.34;58.63
13709;BME280;54933;51.908;7.730;2023-04-08T03:35:34;101605.19;;;21.32;58.87
13709;BME280;54933;51.908;7.730;2023-04-08T03:37:59;101599.63;;;21.34;58.61
13709;BME280;54933;51.908;7.730;2023-04-08T03:40:25;101603.53;;;21.31;58.58
13709;BME280;54933;51.908;7.730;2023-04-08T03:42:50;101603.13;;;21.34;58.67
13709;BME280;54933;51.908;7.730;2023-04-08T03:45:15;101598.56;;;21.35;58.63
13709;BME280;54933;51.908;7.730;2023-04-08T03:47:41;101607.13;;;21.38;58.85
13709;BME280;54933;51.908;7.730;2023-04-08T03:50:06;101596.31;;;21.38;58.83
13709;BME280;54933;51.908;7.730;2023-04-08T03:52:32;101594.81;;;21.36;58.93
13709;BME280;54933;51.908;7.730;2023-04-08T03:54:57;101603.78;;;21.36;58.81
13709;BME280;54933;51.908;7.730;2023-04-08T03:57:22;101591.53;;;21.40;58.65
13709;BME280;54933;51.908;7.730;2023-04-08T03:59:47;101601.28;;;21.35;58.88
13709;BME280;54933;51.908;7.730;2023-04-08T04:02:13;101605.84;;;21.34;58.52
13709;BME280;54933;51.908;7.730;2023-04-08T04:04:38;101605.84;;;21.34;58.72
13709;BME280;54933;51.908;7.730;2023-04-08T04:07:03;101610.22;;;21.35;59.01
13709;BME280;54933;51.908;7.730;2023-04-08T04:09:28;101607.13;;;21.38;58.78
13709;BME280;54933;51.908;7.730;2023-04-08T04:11:54;101612.34;;;21.40;58.76
13709;BME280;54933;51.908;7.730;2023-04-08T04:14:19;101605.63;;;21.36;58.77
13709;BME280;54933;51.908;7.730;2023-04-08T04:16:45;101610.84;;;21.37;58.51
13709;BME280;54933;51.908;7.730;2023-04-08T04:19:10;101615.25;;;21.38;58.81
13709;BME280;54933;51.908;7.730;2023-04-08T04:21:35;101615.63;;;21.35;58.63
13709;BME280;54933;51.908;7.730;2023-04-08T04:24:00;101622.63;;;21.23;58.86
13709;BME280;54933;51.908;7.730;2023-04-08T04:26:26;101619.03;;;21.16;58.92
13709;BME280;54933;51.908;7.730;2023-04-08T04:28:51;101620.47;;;21.12;59.08
13709;BME280;54933;51.908;7.730;2023-04-08T04:31:21;101619.63;;;21.12;59.04
13709;BME280;54933;51.908;7.730;2023-04-08T04:33:47;101613.75;;;21.08;59.33
13709;BME280;54933;51.908;7.730;2023-04-08T04:36:13;101621.22;;;21.06;59.34
13709;BME280;54933;51.908;7.730;2023-04-08T04:38:38;101629.94;;;21.02;59.24
13709;BME280;54933;51.908;7.730;2023-04-08T04:41:03;101631.19;;;20.99;59.44
13709;BME280;54933;51.908;7.730;2023-04-08T04:43:29;101640.09;;;21.00;59.52
13709;BME280;54933;51.908;7.730;2023-04-08T04:45:54;101640.94;;;21.00;59.48
13709;BME280;54933;51.908;7.730;2023-04-08T04:48:21;101649.50;;;21.04;59.39
13709;BME280;54933;51.908;7.730;2023-04-08T04:50:57;101644.50;;;21.01;59.48
13709;BME280;54933;51.908;7.730;2023-04-08T04:53:23;101639.13;;;21.07;59.50
13709;BME280;54933;51.908;7.730;2023-04-08T04:55:51;101640.94;;;21.00;59.84
13709;BME280;54933;51.908;7.730;2023-04-08T04:58:17;101651.56;;;21.02;59.47
13709;BME280;54933;51.908;7.730;2023-04-08T05:00:43;101651.56;;;21.02;59.47
13709;BME280;54933;51.908;7.730;2023-04-08T05:03:08;101643.44;;;21.02;59.34
13709;BME280;54933;51.908;7.730;2023-04-08T05:05:34;101643.63;;;21.00;59.45
13709;BME280;54933;51.908;7.730;2023-04-08T05:08:00;101647.38;;;20.99;59.66
13709;BME280;54933;51.908;7.730;2023-04-08T05:10:25;101653.44;;;21.01;59.54
13709;BME280;54933;51.908;7.730;2023-04-08T05:12:50;101646.34;;;21.00;59.90
13709;BME280;54933;51.908;7.730;2023-04-08T05:15:16;101645.69;;;20.98;59.68
13709;BME280;54933;51.908;7.730;2023-04-08T05:17:41;101651.94;;;20.99;59.70
13709;BME280;54933;51.908;7.730;2023-04-08T05:20:06;101652.78;;;20.99;59.45
13709;BME280;54933;51.908;7.730;2023-04-08T05:22:32;101656.50;;;20.98;59.48
13709;BME280;54933;51.908;7.730;2023-04-08T05:24:57;101658.56;;;20.96;59.49
13709;BME280;54933;51.908;7.730;2023-04-08T05:27:22;101659.41;;;20.97;59.56
13709;BME280;54933;51.908;7.730;2023-04-08T05:29:48;101663.31;;;20.94;59.61
13709;BME280;54933;51.908;7.730;2023-04-08T05:32:13;101673.47;;;20.92;59.50
13709;BME280;54933;51.908;7.730;2023-04-08T05:34:40;101676.81;;;20.94;59.64
13709;BME280;54933;51.908;7.730;2023-04-08T05:37:05;101676.47;;;20.97;59.88
13709;BME280;54933;51.908;7.730;2023-04-08T05:39:31;101681.47;;;21.00;59.46
13709;BME280;54933;51.908;7.730;2023-04-08T05:41:56;101683.53;;;20.98;59.64
13709;BME280;54933;51.908;7.730;2023-04-08T05:44:21;101680.16;;;20.96;59.51
13709;BME280;54933;51.908;7.730;2023-04-08T05:46:46;101687.25;;;20.97;59.57
13709;BME280;54933;51.908;7.730;2023-04-08T05:49:12;101690.97;;;20.96;59.38
13709;BME280;54933;51.908;7.730;2023-04-08T05:51:38;101692.66;;;20.97;59.57
13709;BME280;54933;51.908;7.730;2023-04-08T05:54:03;101687.44;;;20.96;59.62
13709;BME280;54933;51.908;7.730;2023-04-08T05:56:28;101685.91;;;21.08;59.58
13709;BME280;54933;51.908;7.730;2023-04-08T05:58:56;101684.81;;;21.02;58.68
13709;BME280;54933;51.908;7.730;2023-04-08T06:01:21;101691.88;;;21.03;58.42
13709;BME280;54933;51.908;7.730;2023-04-08T06:03:46;101692.53;;;21.05;58.11
13709;BME280;54933;51.908;7.730;2023-04-08T06:06:12;101692.34;;;21.07;58.46
13709;BME280;54933;51.908;7.730;2023-04-08T06:08:37;101697.75;;;21.07;58.17
13709;BME280;54933;51.908;7.730;2023-04-08T06:11:02;101705.00;;;21.06;57.90
13709;BME280;54933;51.908;7.730;2023-04-08T06:13:31;101714.81;;;21.07;58.58
13709;BME280;54933;51.908;7.730;2023-04-08T06:15:57;101712.94;;;21.08;58.22
13709;BME280;54933;51.908;7.730;2023-04-08T06:18:22;101715.06;;;21.12;58.27
13709;BME280;54933;51.908;7.730;2023-04-08T06:20:47;101715.44;;;21.09;58.23
13709;BME280;54933;51.908;7.730;2023-04-08T06:23:13;101721.88;;;21.08;58.26
13709;BME280;54933;51.908;7.730;2023-04-08T06:25:38;101716.06;;;21.11;58.43
13709;BME280;54933;51.908;7.730;2023-04-08T06:28:03;101726.50;;;21.14;58.27
13709;BME280;54933;51.908;7.730;2023-04-08T06:30:29;101719.03;;;21.16;58.55
13709;BME280;54933;51.908;7.730;2023-04-08T06:32:54;101722.78;;;21.15;58.42
13709;BME280;54933;51.908;7.730;2023-04-08T06:35:19;101722.56;;;21.17;58.25
13709;BME280;54933;51.908;7.730;2023-04-08T06:37:45;101723.41;;;21.17;58.35
13709;BME280;54933;51.908;7.730;2023-04-08T06:40:10;101729.44;;;21.19;58.09
13709;BME280;54933;51.908;7.730;2023-04-08T06:42:35;101730.69;;;21.17;58.24
13709;BME280;54933;51.908;7.730;2023-04-08T06:45:03;101729.63;;;21.18;58.28
13709;BME280;54933;51.908;7.730;2023-04-08T06:47:28;101726.94;;;21.18;58.12
13709;BME280;54933;51.908;7.730;2023-04-08T06:49:53;101734.44;;;21.16;58.21
13709;BME280;54933;51.908;7.730;2023-04-08T06:52:19;101741.50;;;21.17;58.28
13709;BME280;54933;51.908;7.730;2023-04-08T06:54:44;101746.91;;;21.17;58.25
13709;BME280;54933;51.908;7.730;2023-04-08T06:57:10;101748.75;;;21.16;58.43
13709;BME280;54933;51.908;7.730;2023-04-08T06:59:35;101749.78;;;21.15;58.50
13709;BME280;54933;51.908;7.730;2023-04-08T07:02:01;101756.25;;;21.14;58.22
13709;BME280;54933;51.908;7.730;2023-04-08T07:04:26;101745.59;;;21.13;58.54
13709;BME280;54933;51.908;7.730;2023-04-08T07:06:51;101751.19;;;21.11;58.40
13709;BME280;54933;51.908;7.730;2023-04-08T07:09:17;101749.53;;;21.10;58.66
13709;BME280;54933;51.908;7.730;2023-04-08T07:11:42;101761.59;;;21.08;58.41
13709;BME280;54933;51.908;7.730;2023-04-08T07:14:07;101758.50;;;21.11;58.48
13709;BME280;54933;51.908;7.730;2023-04-08T07:16:33;101765.56;;;21.12;58.94
13709;BME280;54933;51.908;7.730;2023-04-08T07:18:58;101769.50;;;21.09;58.61
13709;BME280;54933;51.908;7.730;2023-04-08T07:21:23;101767.00;;;21.08;58.67
13709;BME280;54933;51.908;7.730;2023-04-08T07:23:48;101768.84;;;21.07;58.71
13709;BME280;54933;51.908;7.730;2023-04-08T07:26:14;101763.44;;;21.07;58.56
13709;BME280;54933;51.908;7.730;2023-04-08T07:28:39;101764.91;;;21.10;58.71
13709;BME280;54933;51.908;7.730;2023-04-08T07:31:12;101769.50;;;21.09;58.37
13709;BME280;54933;51.908;7.730;2023-04-08T07:33:38;101766.41;;;21.12;58.55
13709;BME280;54933;51.908;7.730;2023-04-08T07:36:03;101775.16;;;21.14;58.39
13709;BME280;54933;51.908;7.730;2023-04-08T07:38:29;101779.06;;;21.12;58.72
13709;BME280;54933;51.908;7.730;2023-04-08T07:40:54;101782.22;;;21.15;58.57
13709;BME280;54933;51.908;7.730;2023-04-08T07:43:20;101789.31;;;21.16;58.46
13709;BME280;54933;51.908;7.730;2023-04-08T07:45:45;101782.69;;;21.19;58.66
13709;BME280;54933;51.908;7.730;2023-04-08T07:48:11;101782.28;;;21.22;58.55
13709;BME280;54933;51.908;7.730;2023-04-08T07:50:36;101784.59;;;21.25;58.47
13709;BME280;54933;51.908;7.730;2023-04-08T07:53:02;101789.81;;;21.26;58.21
13709;BME280;54933;51.908;7.730;2023-04-08T07:55:27;101793.56;;;21.25;58.46
13709;BME280;54933;51.908;7.730;2023-04-08T07:57:52;101791.50;;;21.27;58.74
13709;BME280;54933;51.908;7.730;2023-04-08T08:00:18;101787.75;;;21.28;58.36
13709;BME280;54933;51.908;7.730;2023-04-08T08:02:46;101800.03;;;21.31;58.36
13709;BME280;54933;51.908;7.730;2023-04-08T08:05:12;101810.66;;;21.32;58.24
13709;BME280;54933;51.908;7.730;2023-04-08T08:07:37;101810.66;;;21.32;58.21
13709;BME280;54933;51.908;7.730;2023-04-08T08:10:03;101816.72;;;21.34;58.24
13709;BME280;54933;51.908;7.730;2023-04-08T08:12:28;101816.31;;;21.37;58.38
13709;BME280;54933;51.908;7.730;2023-04-08T08:14:53;101808.22;;;21.37;58.06
13709;BME280;54933;51.908;7.730;2023-04-08T08:17:23;101812.88;;;21.43;58.18
13709;BME280;54933;51.908;7.730;2023-04-08T08:19:48;101805.78;;;21.42;58.05
13709;BME280;54933;51.908;7.730;2023-04-08T08:22:14;101813.06;;;21.42;58.11
13709;BME280;54933;51.908;7.730;2023-04-08T08:24:40;101808.47;;;21.42;57.82
13709;BME280;54933;51.908;7.730;2023-04-08T08:27:05;101810.16;;;21.43;57.90
13709;BME280;54933;51.908;7.730;2023-04-08T08:29:31;101809.78;;;21.46;57.85
13709;BME280;54933;51.908;7.730;2023-04-08T08:31:56;101818.53;;;21.48;57.81
13709;BME280;54933;51.908;7.730;2023-04-08T08:34:22;101827.25;;;21.50;58.09
13709;BME280;54933;51.908;7.730;2023-04-08T08:36:47;101824.56;;;21.50;57.94
13709;BME280;54933;51.908;7.730;2023-04-08T08:39:12;101826.25;;;21.51;57.91
13709;BME280;54933;51.908;7.730;2023-04-08T08:41:38;101820.66;;;21.53;57.87
13709;BME280;54933;51.908;7.730;2023-04-08T08:44:05;101818.13;;;21.51;57.22
13709;BME280;54933;51.908;7.730;2023-04-08T08:46:31;101825.84;;;21.54;56.83
13709;BME280;54933;51.908;7.730;2023-04-08T08:48:57;101820.78;;;20.88;54.48
13709;BME280;54933;51.908;7.730;2023-04-08T08:51:23;101835.75;;;21.05;53.66
13709;BME280;54933;51.908;7.730;2023-04-08T08:53:48;101832.94;;;21.13;53.95
13709;BME280;54933;51.908;7.730;2023-04-08T08:56:13;101837.31;;;20.64;52.56
13709;BME280;54933;51.908;7.730;2023-04-08T08:58:38;101835.16;;;20.60;51.80
13709;BME280;54933;51.908;7.730;2023-04-08T09:01:37;101840.25;;;20.84;51.84
13709;BME280;54933;51.908;7.730;2023-04-08T09:04:12;101851.72;;;21.00;52.14
13709;BME280;54933;51.908;7.730;2023-04-08T09:06:40;101841.41;;;20.75;51.21
13709;BME280;54933;51.908;7.730;2023-04-08T09:09:05;101840.53;;;20.89;51.20
13709;BME280;54933;51.908;7.730;2023-04-08T09:11:34;101848.63;;;21.03;51.53
13709;BME280;54933;51.908;7.730;2023-04-08T09:14:00;101840.59;;;21.10;51.85
13709;BME280;54933;51.908;7.730;2023-04-08T09:16:25;101841.25;;;21.12;52.04
13709;BME280;54933;51.908;7.730;2023-04-08T09:18:52;101844.78;;;21.12;52.50
13709;BME280;54933;51.908;7.730;2023-04-08T09:21:21;101844.59;;;21.14;52.79
13709;BME280;54933;51.908;7.730;2023-04-08T09:23:49;101848.75;;;21.16;52.64
13709;BME280;54933;51.908;7.730;2023-04-08T09:26:16;101829.16;;;21.08;52.53
13709;BME280;54933;51.908;7.730;2023-04-08T09:28:43;101832.09;;;21.13;52.12
13709;BME280;54933;51.908;7.730;2023-04-08T09:31:18;101837.06;;;21.09;52.55
13709;BME280;54933;51.908;7.730;2023-04-08T09:33:45;101840.03;;;21.14;52.65
13709;BME280;54933;51.908;7.730;2023-04-08T09:36:12;101846.25;;;21.15;53.00
13709;BME280;54933;51.908;7.730;2023-04-08T09:38:37;101843.81;;;21.20;53.44
13709;BME280;54933;51.908;7.730;2023-04-08T09:41:06;101857.13;;;21.21;53.39
13709;BME280;54933;51.908;7.730;2023-04-08T09:43:35;101853.50;;;21.29;53.62
13709;BME280;54933;51.908;7.730;2023-04-08T09:46:06;101859.72;;;21.29;53.65
13709;BME280;54933;51.908;7.730;2023-04-08T09:48:39;101858.59;;;21.38;53.78
13709;BME280;54933;51.908;7.730;2023-04-08T09:51:06;101854.84;;;21.39;54.01
13709;BME280;54933;51.908;7.730;2023-04-08T09:53:41;101862.75;;;21.41;53.86
13709;BME280;54933;51.908;7.730;2023-04-08T09:56:11;101858.84;;;21.43;54.17
13709;BME280;54933;51.908;7.730;2023-04-08T09:58:40;101852.84;;;21.48;54.17
13709;BME280;54933;51.908;7.730;2023-04-08T10:01:07;101848.28;;;21.48;54.22
13709;BME280;54933;51.908;7.730;2023-04-08T10:03:39;101845.31;;;21.43;54.24
13709;BME280;54933;51.908;7.730;2023-04-08T10:06:09;101845.94;;;21.45;54.40
13709;BME280;54933;51.908;7.730;2023-04-08T10:08:36;101850.34;;;21.46;54.64
13709;BME280;54933;51.908;7.730;2023-04-08T10:11:01;101849.94;;;21.49;54.50
13709;BME280;54933;51.908;7.730;2023-04-08T10:13:27;101848.09;;;21.50;54.53
13709;BME280;54933;51.908;7.730;2023-04-08T10:18:37;101845.84;;;21.53;54.71
13709;BME280;54933;51.908;7.730;2023-04-08T10:21:03;101857.47;;;21.54;54.75
13709;BME280;54933;51.908;7.730;2023-04-08T10:23:54;101859.59;;;21.58;54.86
13709;BME280;54933;51.908;7.730;2023-04-08T10:26:29;101857.06;;;21.57;55.24
13709;BME280;54933;51.908;7.730;2023-04-08T10:31:41;101856.56;;;21.68;55.16
13709;BME280;54933;51.908;7.730;2023-04-08T10:34:16;101857.19;;;21.70;54.81
13709;BME280;54933;51.908;7.730;2023-04-08T10:36:42;101858.03;;;21.71;54.95
13709;BME280;54933;51.908;7.730;2023-04-08T10:39:08;101854.69;;;21.69;55.05
13709;BME280;54933;51.908;7.730;2023-04-08T10:41:33;101860.75;;;21.71;55.23
13709;BME280;54933;51.908;7.730;2023-04-08T10:44:02;101869.91;;;21.70;55.22
13709;BME280;54933;51.908;7.730;2023-04-08T10:46:27;101859.03;;;21.63;55.13
13709;BME280;54933;51.908;7.730;2023-04-08T10:48:59;101854.50;;;21.70;55.39
13709;BME280;54933;51.908;7.730;2023-04-08T10:51:31;101858.81;;;21.65;55.59
13709;BME280;54933;51.908;7.730;2023-04-08T10:54:04;101860.22;;;21.61;54.88
13709;BME280;54933;51.908;7.730;2023-04-08T10:56:30;101864.63;;;21.62;55.32
13709;BME280;54933;51.908;7.730;2023-04-08T10:58:55;101862.06;;;21.53;55.77
13709;BME280;54933;51.908;7.730;2023-04-08T11:01:21;101846.13;;;21.44;53.61
13709;BME280;54933;51.908;7.730;2023-04-08T11:03:47;101844.41;;;21.36;53.11
13709;BME280;54933;51.908;7.730;2023-04-08T11:06:13;101852.13;;;21.39;53.40
13709;BME280;54933;51.908;7.730;2023-04-08T11:08:38;101853.69;;;21.48;53.83
13709;BME280;54933;51.908;7.730;2023-04-08T11:11:05;101849.28;;;21.47;54.12
13709;BME280;54933;51.908;7.730;2023-04-08T11:13:35;101846.19;;;21.50;54.07
13709;BME280;54933;51.908;7.730;2023-04-08T11:16:02;101850.34;;;21.46;54.26
13709;BME280;54933;51.908;7.730;2023-04-08T11:18:29;101851.34;;;21.45;54.75
13709;BME280;54933;51.908;7.730;2023-04-08T11:20:56;101839.66;;;21.38;53.74
13709;BME280;54933;51.908;7.730;2023-04-08T11:23:24;101844.53;;;21.49;54.06
13709;BME280;54933;51.908;7.730;2023-04-08T11:25:50;101843.69;;;21.49;54.26
13709;BME280;54933;51.908;7.730;2023-04-08T11:28:16;101844.53;;;21.49;54.69
13709;BME280;54933;51.908;7.730;2023-04-08T11:30:42;101850.34;;;21.46;54.91
13709;BME280;54933;51.908;7.730;2023-04-08T11:33:07;101850.34;;;21.46;54.93
13709;BME280;54933;51.908;7.730;2023-04-08T11:35:33;101850.78;;;21.50;54.80
13709;BME280;54933;51.908;7.730;2023-04-08T11:37:58;101847.88;;;21.51;55.04
13709;BME280;54933;51.908;7.730;2023-04-08T11:40:24;101845.38;;;21.50;55.50
13709;BME280;54933;51.908;7.730;2023-04-08T11:42:50;101846.84;;;21.52;55.41
13709;BME280;54933;51.908;7.730;2023-04-08T11:45:18;101843.88;;;21.47;55.50
13709;BME280;54933;51.908;7.730;2023-04-08T11:47:45;101848.69;;;21.52;55.45
13709;BME280;54933;51.908;7.730;2023-04-08T11:50:11;101850.34;;;21.46;55.45
13709;BME280;54933;51.908;7.730;2023-04-08T11:52:45;101852.00;;;21.47;55.64
13709;BME280;54933;51.908;7.730;2023-04-08T11:55:20;101850.53;;;21.45;55.58
13709;BME280;54933;51.908;7.730;2023-04-08T11:57:45;101835.44;;;21.57;55.80
13709;BME280;54933;51.908;7.730;2023-04-08T12:00:11;101854.63;;;21.62;55.48
13709;BME280;54933;51.908;7.730;2023-04-08T12:02:36;101854.38;;;21.57;55.42
13709;BME280;54933;51.908;7.730;2023-04-08T12:05:02;101849.81;;;21.58;55.71
13709;BME280;54933;51.908;7.730;2023-04-08T12:07:27;101855.72;;;21.68;55.52
13709;BME280;54933;51.908;7.730;2023-04-08T12:09:53;101854.63;;;21.62;55.64
13709;BME280;54933;51.908;7.730;2023-04-08T12:12:18;101850.91;;;21.63;55.66
13709;BME280;54933;51.908;7.730;2023-04-08T12:14:44;101860.03;;;21.62;55.63
13709;BME280;54933;51.908;7.730;2023-04-08T12:17:09;101855.22;;;21.58;55.56
13709;BME280;54933;51.908;7.730;2023-04-08T12:19:34;101854.13;;;21.52;55.59
13709;BME280;54933;51.908;7.730;2023-04-08T12:22:00;101852.44;;;21.51;55.96
13709;BME280;54933;51.908;7.730;2023-04-08T12:24:25;101855.81;;;21.53;56.14
13709;BME280;54933;51.908;7.730;2023-04-08T12:26:50;101859.34;;;21.53;56.36
13709;BME280;54933;51.908;7.730;2023-04-08T12:29:15;101857.84;;;21.51;56.44
13709;BME280;54933;51.908;7.730;2023-04-08T12:31:41;101860.75;;;21.49;56.43
13709;BME280;54933;51.908;7.730;2023-04-08T12:34:06;101851.25;;;21.53;56.26
13709;BME280;54933;51.908;7.730;2023-04-08T12:36:31;101856.66;;;21.53;56.32
13709;BME280;54933;51.908;7.730;2023-04-08T12:38:57;101861.28;;;21.60;56.35
13709;BME280;54933;51.908;7.730;2023-04-08T12:41:22;101859.41;;;21.60;56.54
13709;BME280;54933;51.908;7.730;2023-04-08T12:43:48;101863.97;;;21.60;56.31
13709;BME280;54933;51.908;7.730;2023-04-08T12:46:14;101857.78;;;21.66;56.59
13709;BME280;54933;51.908;7.730;2023-04-08T12:48:40;101861.34;;;21.66;56.54
13709;BME280;54933;51.908;7.730;2023-04-08T12:51:05;101863.00;;;21.67;56.58
13709;BME280;54933;51.908;7.730;2023-04-08T12:53:31;101855.72;;;21.68;56.56
13709;BME280;54933;51.908;7.730;2023-04-08T12:55:56;101861.41;;;21.73;56.63